sensor_id;sensor_type;location;lat;lon;timestamp;P1;durP1;ratioP1;P2;durP2;ratioP2
50267;SDS011;36153;50.960;6.220;2023-09-18T00:02:59;4.57;;;3.30;;
50267;SDS011;36153;50.960;6.220;2023-09-18T00:09:03;9.27;;;3.33;;
50267;SDS011;36153;50.960;6.220;2023-09-18T00:12:03;10.75;;;4.18;;
50267;SDS011;36153;50.960;6.220;2023-09-18T00:15:04;7.65;;;3.50;;
50267;SDS011;36153;50.960;6.220;2023-09-18T00:18:05;5.70;;;3.58;;
50267;SDS011;36153;50.960;6.220;2023-09-18T00:21:06;6.35;;;3.60;;
50267;SDS011;36153;50.960;6.220;2023-09-18T00:24:06;5.70;;;3.10;;
50267;SDS011;36153;50.960;6.220;2023-09-18T00:27:08;7.03;;;3.50;;
50267;SDS011;36153;50.960;6.220;2023-09-18T00:30:10;8.18;;;3.45;;
50267;SDS011;36153;50.960;6.220;2023-09-18T00:33:11;7.65;;;3.35;;
50267;SDS011;36153;50.960;6.220;2023-09-18T00:36:11;5.97;;;3.65;;
50267;SDS011;36153;50.960;6.220;2023-09-18T00:39:12;3.90;;;3.35;;
50267;SDS011;36153;50.960;6.220;2023-09-18T00:42:12;8.07;;;3.70;;
50267;SDS011;36153;50.960;6.220;2023-09-18T00:45:14;6.18;;;3.67;;
50267;SDS011;36153;50.960;6.220;2023-09-18T00:48:14;6.95;;;3.55;;
50267;SDS011;36153;50.960;6.220;2023-09-18T00:51:16;7.28;;;3.88;;
50267;SDS011;36153;50.960;6.220;2023-09-18T00:54:17;5.03;;;3.28;;
50267;SDS011;36153;50.960;6.220;2023-09-18T00:57:19;5.63;;;3.15;;
50267;SDS011;36153;50.960;6.220;2023-09-18T01:00:20;6.13;;;3.83;;
50267;SDS011;36153;50.960;6.220;2023-09-18T01:03:22;8.25;;;3.78;;
50267;SDS011;36153;50.960;6.220;2023-09-18T01:06:24;7.15;;;4.05;;
50267;SDS011;36153;50.960;6.220;2023-09-18T01:09:27;8.30;;;4.07;;
50267;SDS011;36153;50.960;6.220;2023-09-18T01:12:47;6.47;;;3.83;;
50267;SDS011;36153;50.960;6.220;2023-09-18T01:16:13;7.22;;;3.83;;
50267;SDS011;36153;50.960;6.220;2023-09-18T01:19:17;4.95;;;3.67;;
50267;SDS011;36153;50.960;6.220;2023-09-18T01:22:35;6.20;;;3.83;;
50267;SDS011;36153;50.960;6.220;2023-09-18T01:25:36;6.07;;;3.47;;
50267;SDS011;36153;50.960;6.220;2023-09-18T01:28:37;6.13;;;4.00;;
50267;SDS011;36153;50.960;6.220;2023-09-18T01:31:38;7.72;;;4.00;;
50267;SDS011;36153;50.960;6.220;2023-09-18T01:34:46;7.90;;;3.80;;
50267;SDS011;36153;50.960;6.220;2023-09-18T01:37:47;7.25;;;3.83;;
50267;SDS011;36153;50.960;6.220;2023-09-18T01:40:51;9.32;;;4.30;;
50267;SDS011;36153;50.960;6.220;2023-09-18T01:43:54;6.70;;;3.70;;
50267;SDS011;36153;50.960;6.220;2023-09-18T01:46:59;5.45;;;3.83;;
50267;SDS011;36153;50.960;6.220;2023-09-18T01:50:05;8.48;;;4.65;;
50267;SDS011;36153;50.960;6.220;2023-09-18T01:53:06;8.48;;;4.03;;
50267;SDS011;36153;50.960;6.220;2023-09-18T01:56:06;8.60;;;3.92;;
50267;SDS011;36153;50.960;6.220;2023-09-18T01:59:07;5.28;;;3.58;;
50267;SDS011;36153;50.960;6.220;2023-09-18T02:02:08;7.05;;;3.55;;
50267;SDS011;36153;50.960;6.220;2023-09-18T02:05:09;6.75;;;3.83;;
50267;SDS011;36153;50.960;6.220;2023-09-18T02:08:10;6.55;;;4.15;;
50267;SDS011;36153;50.960;6.220;2023-09-18T02:11:10;5.43;;;3.70;;
50267;SDS011;36153;50.960;6.220;2023-09-18T02:14:11;6.13;;;3.83;;
50267;SDS011;36153;50.960;6.220;2023-09-18T02:17:12;6.85;;;4.18;;
50267;SDS011;36153;50.960;6.220;2023-09-18T02:20:12;8.20;;;4.68;;
50267;SDS011;36153;50.960;6.220;2023-09-18T02:23:13;8.27;;;4.30;;
50267;SDS011;36153;50.960;6.220;2023-09-18T02:26:14;7.28;;;4.60;;
50267;SDS011;36153;50.960;6.220;2023-09-18T02:29:14;7.78;;;4.18;;
50267;SDS011;36153;50.960;6.220;2023-09-18T02:32:15;6.93;;;3.75;;
50267;SDS011;36153;50.960;6.220;2023-09-18T02:35:15;7.00;;;4.07;;
50267;SDS011;36153;50.960;6.220;2023-09-18T02:38:16;6.50;;;3.53;;
50267;SDS011;36153;50.960;6.220;2023-09-18T02:41:16;9.13;;;3.78;;
50267;SDS011;36153;50.960;6.220;2023-09-18T02:44:16;7.95;;;3.58;;
50267;SDS011;36153;50.960;6.220;2023-09-18T02:47:17;8.30;;;4.30;;
50267;SDS011;36153;50.960;6.220;2023-09-18T02:50:18;8.18;;;3.38;;
50267;SDS011;36153;50.960;6.220;2023-09-18T02:53:19;7.05;;;3.38;;
50267;SDS011;36153;50.960;6.220;2023-09-18T02:56:21;6.53;;;3.25;;
50267;SDS011;36153;50.960;6.220;2023-09-18T02:59:21;9.13;;;2.90;;
50267;SDS011;36153;50.960;6.220;2023-09-18T03:02:22;5.60;;;2.78;;
50267;SDS011;36153;50.960;6.220;2023-09-18T03:05:22;5.97;;;3.17;;
50267;SDS011;36153;50.960;6.220;2023-09-18T03:08:22;5.45;;;2.65;;
50267;SDS011;36153;50.960;6.220;2023-09-18T03:11:23;4.93;;;2.63;;
50267;SDS011;36153;50.960;6.220;2023-09-18T03:14:27;8.88;;;3.25;;
50267;SDS011;36153;50.960;6.220;2023-09-18T03:17:27;3.85;;;2.63;;
50267;SDS011;36153;50.960;6.220;2023-09-18T03:20:28;5.65;;;2.42;;
50267;SDS011;36153;50.960;6.220;2023-09-18T03:23:29;3.72;;;2.97;;
50267;SDS011;36153;50.960;6.220;2023-09-18T03:26:30;6.88;;;2.55;;
50267;SDS011;36153;50.960;6.220;2023-09-18T03:29:30;6.53;;;3.45;;
50267;SDS011;36153;50.960;6.220;2023-09-18T03:32:31;8.07;;;2.63;;
50267;SDS011;36153;50.960;6.220;2023-09-18T03:35:31;5.18;;;2.55;;
50267;SDS011;36153;50.960;6.220;2023-09-18T03:38:32;8.60;;;2.10;;
50267;SDS011;36153;50.960;6.220;2023-09-18T03:41:35;5.22;;;1.83;;
50267;SDS011;36153;50.960;6.220;2023-09-18T03:44:36;5.82;;;2.45;;
50267;SDS011;36153;50.960;6.220;2023-09-18T03:47:37;5.40;;;1.73;;
50267;SDS011;36153;50.960;6.220;2023-09-18T03:50:39;3.78;;;2.50;;
50267;SDS011;36153;50.960;6.220;2023-09-18T03:53:39;4.15;;;1.70;;
50267;SDS011;36153;50.960;6.220;2023-09-18T03:56:40;7.07;;;2.05;;
50267;SDS011;36153;50.960;6.220;2023-09-18T03:59:41;6.22;;;2.20;;
50267;SDS011;36153;50.960;6.220;2023-09-18T04:02:41;7.07;;;2.03;;
50267;SDS011;36153;50.960;6.220;2023-09-18T04:05:41;8.95;;;2.28;;
50267;SDS011;36153;50.960;6.220;2023-09-18T04:08:45;7.80;;;2.50;;
50267;SDS011;36153;50.960;6.220;2023-09-18T04:14:45;4.70;;;1.10;;
50267;SDS011;36153;50.960;6.220;2023-09-18T04:17:46;3.55;;;2.17;;
50267;SDS011;36153;50.960;6.220;2023-09-18T04:20:47;3.45;;;0.90;;
50267;SDS011;36153;50.960;6.220;2023-09-18T04:23:47;4.57;;;1.50;;
50267;SDS011;36153;50.960;6.220;2023-09-18T04:26:48;1.77;;;1.20;;
50267;SDS011;36153;50.960;6.220;2023-09-18T04:29:52;2.80;;;1.27;;
50267;SDS011;36153;50.960;6.220;2023-09-18T04:32:52;2.95;;;1.40;;
50267;SDS011;36153;50.960;6.220;2023-09-18T04:35:53;3.47;;;1.33;;
50267;SDS011;36153;50.960;6.220;2023-09-18T04:38:53;2.85;;;1.25;;
50267;SDS011;36153;50.960;6.220;2023-09-18T04:41:54;3.28;;;1.25;;
50267;SDS011;36153;50.960;6.220;2023-09-18T04:44:54;3.17;;;1.55;;
50267;SDS011;36153;50.960;6.220;2023-09-18T04:47:54;4.25;;;1.50;;
50267;SDS011;36153;50.960;6.220;2023-09-18T04:50:55;2.83;;;0.80;;
50267;SDS011;36153;50.960;6.220;2023-09-18T04:53:56;2.65;;;0.90;;
50267;SDS011;36153;50.960;6.220;2023-09-18T04:56:56;2.22;;;0.98;;
50267;SDS011;36153;50.960;6.220;2023-09-18T04:59:57;4.63;;;1.42;;
50267;SDS011;36153;50.960;6.220;2023-09-18T05:02:57;3.33;;;0.90;;
50267;SDS011;36153;50.960;6.220;2023-09-18T05:06:01;2.35;;;0.90;;
50267;SDS011;36153;50.960;6.220;2023-09-18T05:09:03;3.33;;;0.90;;
50267;SDS011;36153;50.960;6.220;2023-09-18T05:12:04;7.25;;;1.38;;
50267;SDS011;36153;50.960;6.220;2023-09-18T05:15:05;2.53;;;1.10;;
50267;SDS011;36153;50.960;6.220;2023-09-18T05:18:06;2.85;;;1.00;;
50267;SDS011;36153;50.960;6.220;2023-09-18T05:21:06;2.65;;;0.88;;
50267;SDS011;36153;50.960;6.220;2023-09-18T05:24:07;1.65;;;1.02;;
50267;SDS011;36153;50.960;6.220;2023-09-18T05:27:08;2.15;;;0.90;;
50267;SDS011;36153;50.960;6.220;2023-09-18T05:30:09;2.92;;;0.80;;
50267;SDS011;36153;50.960;6.220;2023-09-18T05:33:13;3.65;;;1.10;;
50267;SDS011;36153;50.960;6.220;2023-09-18T05:36:14;4.75;;;1.20;;
50267;SDS011;36153;50.960;6.220;2023-09-18T05:39:14;2.67;;;1.00;;
50267;SDS011;36153;50.960;6.220;2023-09-18T05:42:15;1.85;;;1.00;;
50267;SDS011;36153;50.960;6.220;2023-09-18T05:45:16;4.88;;;1.10;;
50267;SDS011;36153;50.960;6.220;2023-09-18T05:48:16;2.85;;;0.93;;
50267;SDS011;36153;50.960;6.220;2023-09-18T05:51:16;2.88;;;1.00;;
50267;SDS011;36153;50.960;6.220;2023-09-18T05:54:17;4.00;;;1.08;;
50267;SDS011;36153;50.960;6.220;2023-09-18T05:57:18;2.47;;;1.08;;
50267;SDS011;36153;50.960;6.220;2023-09-18T06:00:18;1.40;;;0.77;;
50267;SDS011;36153;50.960;6.220;2023-09-18T06:03:18;2.10;;;0.68;;
50267;SDS011;36153;50.960;6.220;2023-09-18T06:06:20;2.55;;;1.13;;
50267;SDS011;36153;50.960;6.220;2023-09-18T06:09:20;2.17;;;0.80;;
50267;SDS011;36153;50.960;6.220;2023-09-18T06:12:21;1.60;;;0.90;;
50267;SDS011;36153;50.960;6.220;2023-09-18T06:15:21;4.13;;;1.17;;
50267;SDS011;36153;50.960;6.220;2023-09-18T06:18:22;3.63;;;1.20;;
50267;SDS011;36153;50.960;6.220;2023-09-18T06:21:22;2.72;;;0.70;;
50267;SDS011;36153;50.960;6.220;2023-09-18T06:24:23;3.13;;;0.82;;
50267;SDS011;36153;50.960;6.220;2023-09-18T06:27:23;1.80;;;1.08;;
50267;SDS011;36153;50.960;6.220;2023-09-18T06:30:23;3.15;;;0.70;;
50267;SDS011;36153;50.960;6.220;2023-09-18T06:33:24;2.15;;;0.70;;
50267;SDS011;36153;50.960;6.220;2023-09-18T06:36:24;3.78;;;0.95;;
50267;SDS011;36153;50.960;6.220;2023-09-18T06:39:25;1.63;;;0.70;;
50267;SDS011;36153;50.960;6.220;2023-09-18T06:42:26;3.38;;;0.80;;
50267;SDS011;36153;50.960;6.220;2023-09-18T06:45:26;2.70;;;0.50;;
50267;SDS011;36153;50.960;6.220;2023-09-18T06:48:27;1.98;;;0.80;;
50267;SDS011;36153;50.960;6.220;2023-09-18T06:51:32;2.33;;;0.85;;
50267;SDS011;36153;50.960;6.220;2023-09-18T06:54:32;2.63;;;0.90;;
50267;SDS011;36153;50.960;6.220;2023-09-18T06:57:33;1.67;;;0.80;;
50267;SDS011;36153;50.960;6.220;2023-09-18T07:00:34;0.90;;;0.70;;
50267;SDS011;36153;50.960;6.220;2023-09-18T07:03:34;2.15;;;0.82;;
50267;SDS011;36153;50.960;6.220;2023-09-18T07:06:36;1.27;;;0.90;;
50267;SDS011;36153;50.960;6.220;2023-09-18T07:09:37;2.85;;;0.90;;
50267;SDS011;36153;50.960;6.220;2023-09-18T07:12:38;3.58;;;1.05;;
50267;SDS011;36153;50.960;6.220;2023-09-18T07:15:39;1.65;;;1.23;;
50267;SDS011;36153;50.960;6.220;2023-09-18T07:18:39;2.90;;;0.65;;
50267;SDS011;36153;50.960;6.220;2023-09-18T07:21:40;2.58;;;0.68;;
50267;SDS011;36153;50.960;6.220;2023-09-18T07:24:41;5.03;;;1.08;;
50267;SDS011;36153;50.960;6.220;2023-09-18T07:27:42;4.75;;;1.02;;
50267;SDS011;36153;50.960;6.220;2023-09-18T07:30:46;2.40;;;0.75;;
50267;SDS011;36153;50.960;6.220;2023-09-18T07:33:49;3.83;;;1.00;;
50267;SDS011;36153;50.960;6.220;2023-09-18T07:36:55;4.30;;;1.73;;
50267;SDS011;36153;50.960;6.220;2023-09-18T07:39:56;1.27;;;0.80;;
50267;SDS011;36153;50.960;6.220;2023-09-18T07:42:57;1.85;;;0.75;;
50267;SDS011;36153;50.960;6.220;2023-09-18T07:45:58;2.00;;;0.90;;
50267;SDS011;36153;50.960;6.220;2023-09-18T07:48:59;2.25;;;1.13;;
50267;SDS011;36153;50.960;6.220;2023-09-18T07:52:00;1.90;;;1.00;;
50267;SDS011;36153;50.960;6.220;2023-09-18T07:55:00;2.15;;;0.75;;
50267;SDS011;36153;50.960;6.220;2023-09-18T07:58:00;3.42;;;0.70;;
50267;SDS011;36153;50.960;6.220;2023-09-18T08:01:01;4.38;;;1.33;;
50267;SDS011;36153;50.960;6.220;2023-09-18T08:04:05;2.67;;;0.85;;
50267;SDS011;36153;50.960;6.220;2023-09-18T08:07:06;2.55;;;0.90;;
50267;SDS011;36153;50.960;6.220;2023-09-18T08:10:10;2.75;;;0.90;;
50267;SDS011;36153;50.960;6.220;2023-09-18T08:13:12;2.35;;;0.85;;
50267;SDS011;36153;50.960;6.220;2023-09-18T08:16:13;4.63;;;1.20;;
50267;SDS011;36153;50.960;6.220;2023-09-18T08:19:17;1.40;;;0.90;;
50267;SDS011;36153;50.960;6.220;2023-09-18T08:22:19;3.13;;;1.55;;
50267;SDS011;36153;50.960;6.220;2023-09-18T08:25:21;3.15;;;0.80;;
50267;SDS011;36153;50.960;6.220;2023-09-18T08:28:22;1.20;;;0.60;;
50267;SDS011;36153;50.960;6.220;2023-09-18T08:31:24;1.63;;;0.90;;
50267;SDS011;36153;50.960;6.220;2023-09-18T08:34:27;2.03;;;0.70;;
50267;SDS011;36153;50.960;6.220;2023-09-18T08:37:28;3.40;;;1.00;;
50267;SDS011;36153;50.960;6.220;2023-09-18T08:40:28;3.63;;;0.80;;
50267;SDS011;36153;50.960;6.220;2023-09-18T08:43:28;3.42;;;0.90;;
50267;SDS011;36153;50.960;6.220;2023-09-18T08:46:31;1.33;;;0.73;;
50267;SDS011;36153;50.960;6.220;2023-09-18T08:49:34;1.67;;;0.90;;
50267;SDS011;36153;50.960;6.220;2023-09-18T08:52:36;1.50;;;0.80;;
50267;SDS011;36153;50.960;6.220;2023-09-18T08:55:36;1.63;;;0.85;;
50267;SDS011;36153;50.960;6.220;2023-09-18T08:58:37;1.42;;;0.60;;
50267;SDS011;36153;50.960;6.220;2023-09-18T09:01:42;3.78;;;1.48;;
50267;SDS011;36153;50.960;6.220;2023-09-18T09:04:42;2.42;;;0.90;;
50267;SDS011;36153;50.960;6.220;2023-09-18T09:07:43;2.25;;;0.60;;
50267;SDS011;36153;50.960;6.220;2023-09-18T09:10:43;1.55;;;0.75;;
50267;SDS011;36153;50.960;6.220;2023-09-18T09:13:44;1.63;;;1.00;;
50267;SDS011;36153;50.960;6.220;2023-09-18T09:16:48;5.30;;;1.75;;
50267;SDS011;36153;50.960;6.220;2023-09-18T09:19:49;4.78;;;1.42;;
50267;SDS011;36153;50.960;6.220;2023-09-18T09:22:49;2.13;;;1.20;;
50267;SDS011;36153;50.960;6.220;2023-09-18T09:25:50;3.33;;;1.58;;
50267;SDS011;36153;50.960;6.220;2023-09-18T09:28:50;2.42;;;0.63;;
50267;SDS011;36153;50.960;6.220;2023-09-18T09:31:51;3.75;;;0.90;;
50267;SDS011;36153;50.960;6.220;2023-09-18T09:34:57;3.13;;;1.00;;
50267;SDS011;36153;50.960;6.220;2023-09-18T09:38:01;2.13;;;0.82;;
50267;SDS011;36153;50.960;6.220;2023-09-18T09:41:07;3.65;;;1.73;;
50267;SDS011;36153;50.960;6.220;2023-09-18T09:44:10;4.38;;;1.23;;
50267;SDS011;36153;50.960;6.220;2023-09-18T09:47:11;2.45;;;1.38;;
50267;SDS011;36153;50.960;6.220;2023-09-18T09:50:15;3.08;;;1.10;;
50267;SDS011;36153;50.960;6.220;2023-09-18T09:53:19;1.65;;;0.70;;
50267;SDS011;36153;50.960;6.220;2023-09-18T09:56:44;1.20;;;0.85;;
50267;SDS011;36153;50.960;6.220;2023-09-18T09:59:45;3.85;;;1.08;;
50267;SDS011;36153;50.960;6.220;2023-09-18T10:02:46;2.10;;;0.93;;
50267;SDS011;36153;50.960;6.220;2023-09-18T10:05:47;2.20;;;1.17;;
50267;SDS011;36153;50.960;6.220;2023-09-18T10:08:50;2.13;;;1.10;;
50267;SDS011;36153;50.960;6.220;2023-09-18T10:11:52;2.22;;;1.20;;
50267;SDS011;36153;50.960;6.220;2023-09-18T10:14:55;3.08;;;1.05;;
50267;SDS011;36153;50.960;6.220;2023-09-18T10:17:57;1.83;;;0.98;;
50267;SDS011;36153;50.960;6.220;2023-09-18T10:21:13;2.72;;;0.95;;
50267;SDS011;36153;50.960;6.220;2023-09-18T10:24:24;3.35;;;1.08;;
50267;SDS011;36153;50.960;6.220;2023-09-18T10:27:25;2.72;;;1.08;;
50267;SDS011;36153;50.960;6.220;2023-09-18T10:30:32;2.28;;;1.00;;
50267;SDS011;36153;50.960;6.220;2023-09-18T10:33:34;2.67;;;1.02;;
50267;SDS011;36153;50.960;6.220;2023-09-18T10:36:38;2.22;;;1.15;;
50267;SDS011;36153;50.960;6.220;2023-09-18T10:39:41;2.38;;;1.15;;
50267;SDS011;36153;50.960;6.220;2023-09-18T10:45:46;2.67;;;1.00;;
50267;SDS011;36153;50.960;6.220;2023-09-18T10:48:47;1.60;;;1.13;;
50267;SDS011;36153;50.960;6.220;2023-09-18T10:51:49;2.40;;;1.08;;
50267;SDS011;36153;50.960;6.220;2023-09-18T10:54:53;3.60;;;1.27;;
50267;SDS011;36153;50.960;6.220;2023-09-18T10:57:55;2.63;;;1.20;;
50267;SDS011;36153;50.960;6.220;2023-09-18T11:00:58;4.25;;;1.15;;
50267;SDS011;36153;50.960;6.220;2023-09-18T11:04:00;1.85;;;1.00;;
50267;SDS011;36153;50.960;6.220;2023-09-18T11:07:02;1.75;;;1.10;;
50267;SDS011;36153;50.960;6.220;2023-09-18T11:10:24;2.25;;;1.13;;
50267;SDS011;36153;50.960;6.220;2023-09-18T11:13:30;1.80;;;1.00;;
50267;SDS011;36153;50.960;6.220;2023-09-18T11:16:34;3.17;;;1.10;;
50267;SDS011;36153;50.960;6.220;2023-09-18T11:19:40;2.88;;;1.88;;
50267;SDS011;36153;50.960;6.220;2023-09-18T11:22:49;2.45;;;0.90;;
50267;SDS011;36153;50.960;6.220;2023-09-18T11:29:11;2.70;;;1.33;;
50267;SDS011;36153;50.960;6.220;2023-09-18T11:32:13;2.63;;;1.40;;
50267;SDS011;36153;50.960;6.220;2023-09-18T11:35:15;2.55;;;1.10;;
50267;SDS011;36153;50.960;6.220;2023-09-18T11:38:18;3.22;;;0.85;;
50267;SDS011;36153;50.960;6.220;2023-09-18T11:41:21;1.95;;;0.95;;
50267;SDS011;36153;50.960;6.220;2023-09-18T11:47:29;1.98;;;0.90;;
50267;SDS011;36153;50.960;6.220;2023-09-18T11:50:32;2.65;;;1.10;;
50267;SDS011;36153;50.960;6.220;2023-09-18T11:56:39;2.13;;;1.65;;
50267;SDS011;36153;50.960;6.220;2023-09-18T11:59:40;2.00;;;1.10;;
50267;SDS011;36153;50.960;6.220;2023-09-18T12:02:42;3.35;;;1.35;;
50267;SDS011;36153;50.960;6.220;2023-09-18T12:05:46;1.90;;;1.15;;
50267;SDS011;36153;50.960;6.220;2023-09-18T12:08:51;1.75;;;1.20;;
50267;SDS011;36153;50.960;6.220;2023-09-18T12:11:52;3.95;;;1.17;;
50267;SDS011;36153;50.960;6.220;2023-09-18T12:14:54;4.85;;;1.35;;
50267;SDS011;36153;50.960;6.220;2023-09-18T12:17:57;2.45;;;1.08;;
50267;SDS011;36153;50.960;6.220;2023-09-18T12:21:06;1.92;;;1.05;;
50267;SDS011;36153;50.960;6.220;2023-09-18T12:24:07;2.50;;;1.27;;
50267;SDS011;36153;50.960;6.220;2023-09-18T12:27:13;3.17;;;1.02;;
50267;SDS011;36153;50.960;6.220;2023-09-18T12:30:13;2.72;;;1.30;;
50267;SDS011;36153;50.960;6.220;2023-09-18T12:33:20;1.67;;;0.90;;
50267;SDS011;36153;50.960;6.220;2023-09-18T12:36:20;6.72;;;1.75;;
50267;SDS011;36153;50.960;6.220;2023-09-18T12:39:21;1.85;;;0.90;;
50267;SDS011;36153;50.960;6.220;2023-09-18T12:42:21;2.78;;;1.10;;
50267;SDS011;36153;50.960;6.220;2023-09-18T12:45:23;3.53;;;1.17;;
50267;SDS011;36153;50.960;6.220;2023-09-18T12:48:24;3.60;;;1.40;;
50267;SDS011;36153;50.960;6.220;2023-09-18T12:51:29;2.05;;;1.30;;
50267;SDS011;36153;50.960;6.220;2023-09-18T12:54:38;4.72;;;1.52;;
50267;SDS011;36153;50.960;6.220;2023-09-18T12:57:42;1.55;;;1.10;;
50267;SDS011;36153;50.960;6.220;2023-09-18T13:00:48;1.52;;;1.20;;
50267;SDS011;36153;50.960;6.220;2023-09-18T13:03:53;1.50;;;0.88;;
50267;SDS011;36153;50.960;6.220;2023-09-18T13:07:11;3.70;;;1.38;;
50267;SDS011;36153;50.960;6.220;2023-09-18T13:10:13;1.33;;;0.85;;
50267;SDS011;36153;50.960;6.220;2023-09-18T13:13:18;2.22;;;0.85;;
50267;SDS011;36153;50.960;6.220;2023-09-18T13:16:21;2.88;;;0.90;;
50267;SDS011;36153;50.960;6.220;2023-09-18T13:19:22;1.70;;;1.05;;
50267;SDS011;36153;50.960;6.220;2023-09-18T13:22:23;3.08;;;1.17;;
50267;SDS011;36153;50.960;6.220;2023-09-18T13:25:34;1.75;;;1.23;;
50267;SDS011;36153;50.960;6.220;2023-09-18T13:28:37;1.13;;;0.77;;
50267;SDS011;36153;50.960;6.220;2023-09-18T13:31:39;2.28;;;1.30;;
50267;SDS011;36153;50.960;6.220;2023-09-18T13:34:40;2.13;;;0.80;;
50267;SDS011;36153;50.960;6.220;2023-09-18T13:37:40;2.55;;;1.15;;
50267;SDS011;36153;50.960;6.220;2023-09-18T13:40:41;11.02;;;1.65;;
50267;SDS011;36153;50.960;6.220;2023-09-18T13:43:43;1.85;;;1.00;;
50267;SDS011;36153;50.960;6.220;2023-09-18T13:46:44;2.00;;;1.10;;
50267;SDS011;36153;50.960;6.220;2023-09-18T13:49:44;2.13;;;1.08;;
50267;SDS011;36153;50.960;6.220;2023-09-18T13:52:46;1.38;;;1.08;;
50267;SDS011;36153;50.960;6.220;2023-09-18T13:55:46;2.85;;;1.00;;
50267;SDS011;36153;50.960;6.220;2023-09-18T13:58:47;1.83;;;0.95;;
50267;SDS011;36153;50.960;6.220;2023-09-18T14:01:47;2.13;;;1.08;;
50267;SDS011;36153;50.960;6.220;2023-09-18T14:04:47;1.88;;;1.17;;
50267;SDS011;36153;50.960;6.220;2023-09-18T14:07:48;3.38;;;1.10;;
50267;SDS011;36153;50.960;6.220;2023-09-18T14:10:49;4.75;;;1.10;;
50267;SDS011;36153;50.960;6.220;2023-09-18T14:13:50;1.73;;;0.98;;
50267;SDS011;36153;50.960;6.220;2023-09-18T14:16:51;2.42;;;1.38;;
50267;SDS011;36153;50.960;6.220;2023-09-18T14:19:51;1.83;;;1.05;;
50267;SDS011;36153;50.960;6.220;2023-09-18T14:22:53;2.65;;;1.08;;
50267;SDS011;36153;50.960;6.220;2023-09-18T14:25:53;2.75;;;1.05;;
50267;SDS011;36153;50.960;6.220;2023-09-18T14:28:55;2.67;;;1.05;;
50267;SDS011;36153;50.960;6.220;2023-09-18T14:31:56;1.73;;;1.08;;
50267;SDS011;36153;50.960;6.220;2023-09-18T14:34:57;1.83;;;1.05;;
50267;SDS011;36153;50.960;6.220;2023-09-18T14:38:01;2.65;;;0.90;;
50267;SDS011;36153;50.960;6.220;2023-09-18T14:41:05;2.55;;;0.80;;
50267;SDS011;36153;50.960;6.220;2023-09-18T14:47:08;2.30;;;0.88;;
50267;SDS011;36153;50.960;6.220;2023-09-18T14:50:09;2.03;;;1.23;;
50267;SDS011;36153;50.960;6.220;2023-09-18T14:53:09;2.05;;;1.05;;
50267;SDS011;36153;50.960;6.220;2023-09-18T14:56:10;2.30;;;1.10;;
50267;SDS011;36153;50.960;6.220;2023-09-18T14:59:10;1.73;;;0.82;;
50267;SDS011;36153;50.960;6.220;2023-09-18T15:02:10;4.43;;;1.27;;
50267;SDS011;36153;50.960;6.220;2023-09-18T15:05:12;3.95;;;1.00;;
50267;SDS011;36153;50.960;6.220;2023-09-18T15:08:15;2.10;;;0.95;;
50267;SDS011;36153;50.960;6.220;2023-09-18T15:11:15;1.45;;;0.90;;
50267;SDS011;36153;50.960;6.220;2023-09-18T15:14:19;2.90;;;0.85;;
50267;SDS011;36153;50.960;6.220;2023-09-18T15:17:19;1.60;;;1.10;;
50267;SDS011;36153;50.960;6.220;2023-09-18T15:20:20;1.60;;;1.10;;
50267;SDS011;36153;50.960;6.220;2023-09-18T15:23:24;4.15;;;0.95;;
50267;SDS011;36153;50.960;6.220;2023-09-18T15:26:24;3.30;;;1.33;;
50267;SDS011;36153;50.960;6.220;2023-09-18T15:29:25;1.13;;;0.95;;
50267;SDS011;36153;50.960;6.220;2023-09-18T15:32:28;3.45;;;1.33;;
50267;SDS011;36153;50.960;6.220;2023-09-18T15:35:28;3.80;;;1.35;;
50267;SDS011;36153;50.960;6.220;2023-09-18T15:38:29;2.65;;;1.60;;
50267;SDS011;36153;50.960;6.220;2023-09-18T15:41:30;4.32;;;1.35;;
50267;SDS011;36153;50.960;6.220;2023-09-18T15:44:30;4.80;;;1.40;;
50267;SDS011;36153;50.960;6.220;2023-09-18T15:47:30;4.32;;;1.25;;
50267;SDS011;36153;50.960;6.220;2023-09-18T15:50:31;4.22;;;1.15;;
50267;SDS011;36153;50.960;6.220;2023-09-18T15:53:32;4.53;;;1.20;;
50267;SDS011;36153;50.960;6.220;2023-09-18T15:56:32;1.80;;;1.13;;
50267;SDS011;36153;50.960;6.220;2023-09-18T15:59:33;3.22;;;1.25;;
50267;SDS011;36153;50.960;6.220;2023-09-18T16:02:34;2.53;;;2.03;;
50267;SDS011;36153;50.960;6.220;2023-09-18T16:05:35;3.72;;;1.05;;
50267;SDS011;36153;50.960;6.220;2023-09-18T16:08:35;1.70;;;1.00;;
50267;SDS011;36153;50.960;6.220;2023-09-18T16:11:37;3.63;;;1.20;;
50267;SDS011;36153;50.960;6.220;2023-09-18T16:14:37;3.03;;;1.20;;
50267;SDS011;36153;50.960;6.220;2023-09-18T16:17:37;2.47;;;1.23;;
50267;SDS011;36153;50.960;6.220;2023-09-18T16:20:38;6.10;;;1.40;;
50267;SDS011;36153;50.960;6.220;2023-09-18T16:23:38;2.17;;;1.30;;
50267;SDS011;36153;50.960;6.220;2023-09-18T16:26:38;3.08;;;1.33;;
50267;SDS011;36153;50.960;6.220;2023-09-18T16:29:39;2.08;;;1.30;;
50267;SDS011;36153;50.960;6.220;2023-09-18T16:32:40;2.13;;;1.40;;
50267;SDS011;36153;50.960;6.220;2023-09-18T16:35:41;2.53;;;1.23;;
50267;SDS011;36153;50.960;6.220;2023-09-18T16:38:41;4.72;;;1.30;;
50267;SDS011;36153;50.960;6.220;2023-09-18T16:41:42;3.70;;;1.25;;
50267;SDS011;36153;50.960;6.220;2023-09-18T16:44:45;2.70;;;1.38;;
50267;SDS011;36153;50.960;6.220;2023-09-18T16:47:45;3.15;;;1.20;;
50267;SDS011;36153;50.960;6.220;2023-09-18T16:50:46;2.80;;;1.35;;
50267;SDS011;36153;50.960;6.220;2023-09-18T16:53:46;2.38;;;0.98;;
50267;SDS011;36153;50.960;6.220;2023-09-18T16:56:49;5.82;;;1.70;;
50267;SDS011;36153;50.960;6.220;2023-09-18T16:59:51;1.67;;;1.10;;
50267;SDS011;36153;50.960;6.220;2023-09-18T17:02:51;1.73;;;1.10;;
50267;SDS011;36153;50.960;6.220;2023-09-18T17:05:52;1.60;;;1.02;;
50267;SDS011;36153;50.960;6.220;2023-09-18T17:08:52;4.20;;;1.20;;
50267;SDS011;36153;50.960;6.220;2023-09-18T17:11:52;6.13;;;0.90;;
50267;SDS011;36153;50.960;6.220;2023-09-18T17:14:53;2.65;;;0.60;;
50267;SDS011;36153;50.960;6.220;2023-09-18T17:17:53;2.72;;;0.50;;
50267;SDS011;36153;50.960;6.220;2023-09-18T17:20:58;3.00;;;0.88;;
50267;SDS011;36153;50.960;6.220;2023-09-18T17:23:58;2.10;;;0.80;;
50267;SDS011;36153;50.960;6.220;2023-09-18T17:26:59;1.50;;;0.70;;
50267;SDS011;36153;50.960;6.220;2023-09-18T17:29:59;3.40;;;1.20;;
50267;SDS011;36153;50.960;6.220;2023-09-18T17:33:00;3.25;;;1.20;;
50267;SDS011;36153;50.960;6.220;2023-09-18T17:36:01;2.42;;;1.17;;
50267;SDS011;36153;50.960;6.220;2023-09-18T17:39:01;2.70;;;1.20;;
50267;SDS011;36153;50.960;6.220;2023-09-18T17:42:03;4.00;;;1.10;;
50267;SDS011;36153;50.960;6.220;2023-09-18T17:45:04;3.38;;;1.15;;
50267;SDS011;36153;50.960;6.220;2023-09-18T17:48:05;4.95;;;1.63;;
50267;SDS011;36153;50.960;6.220;2023-09-18T17:51:08;3.70;;;1.10;;
50267;SDS011;36153;50.960;6.220;2023-09-18T17:54:08;3.05;;;1.17;;
50267;SDS011;36153;50.960;6.220;2023-09-18T17:57:09;3.88;;;1.52;;
50267;SDS011;36153;50.960;6.220;2023-09-18T18:00:09;2.15;;;0.90;;
50267;SDS011;36153;50.960;6.220;2023-09-18T18:03:12;5.15;;;1.60;;
50267;SDS011;36153;50.960;6.220;2023-09-18T18:06:13;6.82;;;1.30;;
50267;SDS011;36153;50.960;6.220;2023-09-18T18:09:15;3.00;;;1.23;;
50267;SDS011;36153;50.960;6.220;2023-09-18T18:12:16;1.90;;;0.98;;
50267;SDS011;36153;50.960;6.220;2023-09-18T18:15:18;3.50;;;1.10;;
50267;SDS011;36153;50.960;6.220;2023-09-18T18:18:18;2.15;;;1.40;;
50267;SDS011;36153;50.960;6.220;2023-09-18T18:21:18;1.67;;;1.25;;
50267;SDS011;36153;50.960;6.220;2023-09-18T18:24:20;2.65;;;1.23;;
50267;SDS011;36153;50.960;6.220;2023-09-18T18:27:21;2.05;;;1.40;;
50267;SDS011;36153;50.960;6.220;2023-09-18T18:30:21;2.47;;;1.20;;
50267;SDS011;36153;50.960;6.220;2023-09-18T18:33:22;1.98;;;1.05;;
50267;SDS011;36153;50.960;6.220;2023-09-18T18:36:22;1.88;;;0.98;;
50267;SDS011;36153;50.960;6.220;2023-09-18T18:39:22;2.30;;;1.40;;